Time;durP1;ratioP1;P1;durP2;ratioP2;P2;SDS_P1;SDS_P2;PMS_P1;PMS_P2;Temp;Humidity;BMP_temperature;BMP_pressure;BME280_temperature;BME280_humidity;BME280_pressure;Samples;Min_cycle;Max_cycle;Signal;HPM_P1;HPM_P2
2022/10/09 00:01:09;;;;;;;13.10;3.00;;;10.80;99.90;;;;;;4977697;28;20045;-68
2022/10/09 00:03:37;;;;;;;12.80;2.65;;;10.80;99.90;;;;;;4977839;28;20515;-68
2022/10/09 00:06:03;;;;;;;13.80;2.90;;;10.70;99.90;;;;;;4977666;28;20125;-68
2022/10/09 00:08:29;;;;;;;10.93;2.97;;;10.70;99.90;;;;;;4977497;28;20053;-68
2022/10/09 00:10:55;;;;;;;9.40;3.42;;;10.50;99.90;;;;;;4961725;28;20035;-68
2022/10/09 00:13:21;;;;;;;9.88;3.55;;;10.40;99.90;;;;;;4977876;28;20039;-68
2022/10/09 00:15:47;;;;;;;9.98;3.72;;;10.40;99.90;;;;;;4977916;28;20391;-68
2022/10/09 00:18:14;;;;;;;12.45;3.72;;;10.30;99.90;;;;;;4943429;28;1016535;-68
2022/10/09 00:20:42;;;;;;;22.30;4.05;;;10.20;99.90;;;;;;4978491;28;20134;-68
2022/10/09 00:23:09;;;;;;;9.07;3.88;;;10.10;99.90;;;;;;4978699;28;20097;-68
2022/10/09 00:25:35;;;;;;;9.68;4.55;;;10.10;99.90;;;;;;4962289;28;20499;-68
2022/10/09 00:28:01;;;;;;;16.50;4.40;;;10.10;99.90;;;;;;4962139;28;20038;-68
2022/10/09 00:30:26;;;;;;;10.23;4.10;;;10.00;99.90;;;;;;4978331;28;20480;-68
2022/10/09 00:32:53;;;;;;;13.07;4.30;;;9.90;99.90;;;;;;4995694;28;20096;-68
2022/10/09 00:35:19;;;;;;;11.60;4.00;;;9.90;99.90;;;;;;4978476;28;20053;-68
2022/10/09 00:37:45;;;;;;;17.30;4.32;;;9.80;99.90;;;;;;4961960;28;20411;-68
2022/10/09 00:40:10;;;;;;;11.30;4.00;;;9.80;99.90;;;;;;4978107;28;20054;-68
2022/10/09 00:42:36;;;;;;;9.23;3.72;;;9.70;99.90;;;;;;4978102;28;20047;-68
2022/10/09 00:45:02;;;;;;;13.82;4.50;;;9.70;99.90;;;;;;4978063;28;20050;-68
2022/10/09 00:47:40;;;;;;;13.65;4.15;;;9.60;99.90;;;;;;4978160;28;20494;-68
2022/10/09 00:50:22;;;;;;;15.52;4.18;;;9.60;99.90;;;;;;4978042;28;20055;-68
2022/10/09 00:52:56;;;;;;;14.75;4.53;;;9.60;99.90;;;;;;4978217;28;20073;-68
2022/10/09 00:55:22;;;;;;;10.43;3.83;;;9.50;99.90;;;;;;4995589;28;20141;-68
2022/10/09 00:57:48;;;;;;;11.18;4.05;;;9.50;99.90;;;;;;4978056;28;20046;-68
2022/10/09 01:00:16;;;;;;;10.18;3.75;;;9.50;99.90;;;;;;4978010;28;20061;-68
2022/10/09 01:02:41;;;;;;;10.75;3.78;;;9.50;99.90;;;;;;4978277;28;20046;-68
2022/10/09 01:05:09;;;;;;;10.88;3.92;;;9.50;99.90;;;;;;4977610;28;20049;-68
2022/10/09 01:07:40;;;;;;;13.32;4.47;;;9.50;99.90;;;;;;4961866;28;20043;-68
2022/10/09 01:10:13;;;;;;;10.52;4.30;;;9.50;99.90;;;;;;4977504;28;20042;-68
2022/10/09 01:13:07;;;;;;;12.33;4.20;;;9.50;99.90;;;;;;4977652;28;20050;-68
2022/10/09 01:15:51;;;;;;;9.00;3.55;;;9.50;99.90;;;;;;4970250;28;20101;-68
2022/10/09 01:18:21;;;;;;;;;;;9.40;99.90;;;;;;4977710;28;20034;-68
2022/10/09 01:20:50;;;;;;;7.78;3.75;;;9.20;99.90;;;;;;4977416;28;19918;-68
2022/10/09 01:23:37;;;;;;;13.52;4.07;;;9.20;99.90;;;;;;4977300;28;20510;-68
2022/10/09 01:26:15;;;;;;;10.50;3.97;;;9.20;99.90;;;;;;4977251;28;20056;-68
2022/10/09 01:28:52;;;;;;;9.60;4.10;;;9.30;99.90;;;;;;4977143;28;20154;-68
2022/10/09 01:31:19;;;;;;;15.38;4.95;;;9.30;99.90;;;;;;4977518;28;20117;-68
2022/10/09 01:33:45;;;;;;;10.25;3.60;;;9.20;99.90;;;;;;4977036;28;20042;-68
2022/10/09 01:36:12;;;;;;;8.93;3.75;;;9.20;99.90;;;;;;4977013;28;20038;-68
2022/10/09 01:38:40;;;;;;;7.18;3.50;;;9.20;99.90;;;;;;4976950;28;20050;-68
2022/10/09 01:41:07;;;;;;;30.23;4.82;;;9.20;99.90;;;;;;4977263;28;20050;-68
2022/10/09 01:43:33;;;;;;;5.28;3.05;;;9.10;99.90;;;;;;4994389;28;20411;-68
2022/10/09 01:46:35;;;;;;;7.82;3.80;;;9.10;99.90;;;;;;4960780;28;20384;-68
2022/10/09 01:49:31;;;;;;;9.02;3.45;;;9.10;99.90;;;;;;4976828;28;20035;-68
2022/10/09 01:52:12;;;;;;;9.05;3.83;;;9.00;99.90;;;;;;4976853;28;20043;-68
2022/10/09 01:54:57;;;;;;;10.70;3.60;;;9.00;99.90;;;;;;4976791;28;20038;-68
2022/10/09 01:57:39;;;;;;;8.20;3.70;;;9.00;99.90;;;;;;4960573;28;20518;-68
2022/10/09 02:00:09;;;;;;;10.32;3.85;;;9.00;99.90;;;;;;4976732;28;20060;-68
2022/10/09 02:02:35;;;;;;;6.68;3.63;;;9.00;99.90;;;;;;4976925;28;20511;-68
2022/10/09 02:05:01;;;;;;;8.95;3.58;;;9.00;99.90;;;;;;4976669;28;20053;-68
2022/10/09 02:07:28;;;;;;;14.32;3.80;;;8.90;99.90;;;;;;4976481;28;20044;-68
2022/10/09 02:09:55;;;;;;;4.50;3.00;;;8.90;99.90;;;;;;4976505;28;20049;-68
2022/10/09 02:12:23;;;;;;;7.38;3.08;;;8.80;99.90;;;;;;4976512;28;20046;-68
2022/10/09 02:14:49;;;;;;;8.45;3.45;;;8.80;99.90;;;;;;4976535;28;20053;-68
2022/10/09 02:17:20;;;;;;;8.73;3.92;;;8.80;99.90;;;;;;4976316;28;20407;-68
2022/10/09 02:19:51;;;;;;;11.60;4.20;;;8.80;99.90;;;;;;4976402;28;20034;-68
2022/10/09 02:22:26;;;;;;;8.80;3.90;;;8.70;99.90;;;;;;4976439;28;20050;-68
2022/10/09 02:24:52;;;;;;;13.07;4.07;;;8.70;99.90;;;;;;4993822;28;20053;-68
2022/10/09 02:27:20;;;;;;;8.45;3.67;;;8.70;99.90;;;;;;4976254;28;20038;-68
2022/10/09 02:29:47;;;;;;;6.57;3.50;;;8.70;99.90;;;;;;4993709;28;20566;-68
2022/10/09 02:32:13;;;;;;;7.78;3.35;;;8.60;99.90;;;;;;4976337;28;20050;-68
2022/10/09 02:34:39;;;;;;;65.70;5.72;;;8.60;99.90;;;;;;4993990;28;20041;-68
2022/10/09 02:37:05;;;;;;;9.25;3.70;;;8.50;99.90;;;;;;4960370;28;20399;-68
2022/10/09 02:39:30;;;;;;;6.85;2.95;;;8.50;99.90;;;;;;4976280;28;20565;-68
2022/10/09 02:41:56;;;;;;;8.65;3.65;;;8.50;99.90;;;;;;4993635;28;20034;-68
2022/10/09 02:44:21;;;;;;;7.85;3.83;;;8.50;99.90;;;;;;4976225;28;20046;-68
2022/10/09 02:46:47;;;;;;;9.77;3.78;;;8.50;99.90;;;;;;4976113;28;20057;-68
2022/10/09 02:49:12;;;;;;;8.68;4.05;;;8.50;99.90;;;;;;4993457;28;20062;-68
2022/10/09 02:51:38;;;;;;;22.25;4.30;;;8.50;99.90;;;;;;4994077;28;20128;-68
2022/10/09 02:54:04;;;;;;;25.50;3.30;;;8.50;99.90;;;;;;4976289;28;20128;-68
2022/10/09 02:56:29;;;;;;;4.60;2.25;;;8.40;99.90;;;;;;4976209;28;20487;-68
2022/10/09 02:58:55;;;;;;;6.32;2.80;;;8.30;99.90;;;;;;4976061;28;20499;-68
2022/10/09 03:01:21;;;;;;;7.25;2.75;;;8.30;99.90;;;;;;4976052;28;20074;-68
2022/10/09 03:03:46;;;;;;;6.05;2.90;;;8.30;99.90;;;;;;4976054;28;20042;-68
2022/10/09 03:06:15;;;;;;;7.72;3.20;;;8.30;99.90;;;;;;4976203;28;20050;-68
2022/10/09 03:08:43;;;;;;;6.85;3.35;;;8.30;99.90;;;;;;4975891;28;20069;-68
2022/10/09 03:11:10;;;;;;;8.05;3.53;;;8.30;99.90;;;;;;4993359;28;20046;-68
2022/10/09 03:13:35;;;;;;;7.88;3.13;;;8.30;99.90;;;;;;4975878;28;20468;-68
2022/10/09 03:16:10;;;;;;;6.20;3.58;;;8.30;99.90;;;;;;4993473;28;20065;-68
2022/10/09 03:18:36;;;;;;;5.65;2.83;;;8.30;99.90;;;;;;4976089;28;20089;-68
2022/10/09 03:21:06;;;;;;;4.07;2.65;;;8.20;99.90;;;;;;4975851;28;20077;-68
2022/10/09 03:23:32;;;;;;;7.32;3.20;;;8.30;99.90;;;;;;4976096;28;20042;-68
2022/10/09 03:25:59;;;;;;;6.28;3.17;;;8.20;99.90;;;;;;4975783;28;20521;-68
2022/10/09 03:28:26;;;;;;;9.48;3.38;;;8.20;99.90;;;;;;4975669;28;20042;-68
2022/10/09 03:30:52;;;;;;;6.93;3.53;;;8.20;99.90;;;;;;4976074;28;20042;-68
2022/10/09 03:33:18;;;;;;;7.95;3.63;;;8.20;99.90;;;;;;4979404;28;20049;-68
2022/10/09 03:35:48;;;;;;;10.55;3.85;;;8.20;99.90;;;;;;4979398;28;20034;-68
2022/10/09 03:38:14;;;;;;;8.70;3.80;;;8.10;99.90;;;;;;4996631;28;20178;-68
2022/10/09 03:40:40;;;;;;;8.07;3.30;;;8.10;99.90;;;;;;4979171;28;20053;-68
2022/10/09 03:43:06;;;;;;;9.43;3.55;;;8.10;99.90;;;;;;4979182;28;20046;-68
2022/10/09 03:45:32;;;;;;;8.38;3.42;;;8.00;99.90;;;;;;4979383;28;20050;-68
2022/10/09 03:47:57;;;;;;;8.55;3.40;;;8.00;99.90;;;;;;4979004;28;20499;-68
2022/10/09 03:50:23;;;;;;;6.00;3.30;;;8.00;99.90;;;;;;4979086;28;20038;-68
2022/10/09 03:52:48;;;;;;;8.45;3.58;;;8.00;99.90;;;;;;4979028;28;20038;-68
2022/10/09 03:55:14;;;;;;;15.50;4.30;;;7.90;99.90;;;;;;4978995;28;20038;-68
2022/10/09 03:57:39;;;;;;;8.40;4.07;;;7.90;99.90;;;;;;4978896;28;20042;-68
2022/10/09 04:00:06;;;;;;;8.80;3.50;;;8.00;99.90;;;;;;4978912;28;20049;-68
2022/10/09 04:02:33;;;;;;;9.60;3.67;;;7.90;99.90;;;;;;4978826;28;20450;-68
2022/10/09 04:04:58;;;;;;;6.60;3.45;;;7.90;99.90;;;;;;4979076;28;20105;-68
2022/10/09 04:07:24;;;;;;;9.60;4.22;;;7.90;99.90;;;;;;4978832;28;20050;-68
2022/10/09 04:09:50;;;;;;;7.03;3.60;;;7.90;99.90;;;;;;4978692;28;20125;-68
2022/10/09 04:12:16;;;;;;;7.35;3.53;;;7.90;99.90;;;;;;4978664;28;20074;-68
2022/10/09 04:14:41;;;;;;;7.93;3.83;;;7.90;99.90;;;;;;4978894;28;20049;-68
2022/10/09 04:17:07;;;;;;;10.43;3.72;;;7.90;99.90;;;;;;4978456;28;20035;-68
2022/10/09 04:19:33;;;;;;;11.38;3.78;;;7.90;99.90;;;;;;4978488;28;20085;-68
2022/10/09 04:21:58;;;;;;;8.77;3.40;;;7.90;99.90;;;;;;4978512;28;20053;-68
2022/10/09 04:24:24;;;;;;;7.00;3.47;;;7.90;99.90;;;;;;4978745;28;20046;-68
2022/10/09 04:26:49;;;;;;;8.23;4.20;;;7.90;99.90;;;;;;4978345;28;20172;-68
2022/10/09 04:29:15;;;;;;;6.70;3.40;;;7.80;99.90;;;;;;4978321;28;20081;-68
2022/10/09 04:31:40;;;;;;;7.00;3.58;;;7.80;99.90;;;;;;4962199;28;20046;-68
2022/10/09 04:34:06;;;;;;;8.27;3.50;;;7.80;99.90;;;;;;4996290;28;20034;-68
2022/10/09 04:36:31;;;;;;;8.18;3.40;;;7.80;99.90;;;;;;4978197;28;20128;-68
2022/10/09 04:38:57;;;;;;;5.15;2.95;;;7.70;99.90;;;;;;4978217;28;20038;-68
2022/10/09 04:41:23;;;;;;;10.00;3.20;;;7.70;99.90;;;;;;4978156;28;20128;-68
2022/10/09 04:43:54;;;;;;;5.78;3.30;;;7.70;99.90;;;;;;4976984;28;20125;-68
2022/10/09 04:46:20;;;;;;;6.32;2.80;;;7.70;99.90;;;;;;4978131;28;20053;-68
2022/10/09 04:48:46;;;;;;;6.75;3.00;;;7.60;99.90;;;;;;4977978;28;20042;-68
2022/10/09 04:51:12;;;;;;;8.52;2.55;;;7.60;99.90;;;;;;4961834;28;20483;-68
2022/10/09 04:53:39;;;;;;;6.57;2.35;;;7.60;99.90;;;;;;4995367;28;20100;-68
2022/10/09 04:56:07;;;;;;;5.20;2.70;;;7.60;99.90;;;;;;4977908;28;20038;-68
2022/10/09 04:58:38;;;;;;;4.55;2.70;;;7.60;99.90;;;;;;4961893;28;20140;-68
2022/10/09 05:01:10;;;;;;;5.15;2.53;;;7.60;99.90;;;;;;4995214;28;20546;-68
2022/10/09 05:03:35;;;;;;;6.80;2.65;;;7.60;99.90;;;;;;4977999;28;20046;-68
2022/10/09 05:06:04;;;;;;;9.85;3.13;;;7.60;99.90;;;;;;4977646;28;20416;-68
2022/10/09 05:08:30;;;;;;;8.25;3.10;;;7.60;99.90;;;;;;4977590;28;20042;-68
2022/10/09 05:11:00;;;;;;;6.88;3.15;;;7.60;99.90;;;;;;4977625;28;20046;-68
2022/10/09 05:13:29;;;;;;;10.52;3.00;;;7.60;99.90;;;;;;4977555;28;20039;-68
2022/10/09 05:15:55;;;;;;;11.30;3.95;;;7.60;99.90;;;;;;4977499;28;20495;-68
2022/10/09 05:18:20;;;;;;;11.93;3.88;;;7.70;99.90;;;;;;4977553;28;20054;-68
2022/10/09 05:20:46;;;;;;;7.18;3.40;;;7.70;99.90;;;;;;4977659;28;20038;-68
2022/10/09 05:23:11;;;;;;;7.63;3.63;;;7.70;99.90;;;;;;4977622;28;20461;-68
2022/10/09 05:25:37;;;;;;;7.40;3.10;;;7.70;99.90;;;;;;4977267;28;20503;-68
2022/10/09 05:28:03;;;;;;;7.90;3.28;;;7.70;99.90;;;;;;4977138;28;20050;-68
2022/10/09 05:30:29;;;;;;;9.90;4.25;;;7.70;99.90;;;;;;4994649;28;20042;-68
2022/10/09 05:32:54;;;;;;;6.55;3.65;;;7.60;99.90;;;;;;4994521;28;20509;-68
2022/10/09 05:35:20;;;;;;;7.60;3.10;;;7.60;99.90;;;;;;4994574;28;20121;-68
2022/10/09 05:37:45;;;;;;;7.00;3.45;;;7.60;99.90;;;;;;4977182;28;20050;-68
2022/10/09 05:40:11;;;;;;;8.43;3.55;;;7.60;99.90;;;;;;4977014;28;20129;-68
2022/10/09 05:42:36;;;;;;;9.85;3.70;;;7.60;99.90;;;;;;4960932;28;20046;-68
2022/10/09 05:45:02;;;;;;;9.30;3.38;;;7.60;99.90;;;;;;4976957;28;20086;-68
2022/10/09 05:47:31;;;;;;;6.85;3.70;;;7.60;99.90;;;;;;4976769;28;20078;-68
2022/10/09 05:49:56;;;;;;;6.55;2.85;;;7.60;99.90;;;;;;4977155;28;20057;-68
2022/10/09 05:52:22;;;;;;;11.82;3.65;;;7.50;99.90;;;;;;4976867;28;20631;-68
2022/10/09 05:54:49;;;;;;;9.93;3.28;;;7.60;99.90;;;;;;4961236;28;20042;-67
2022/10/09 05:57:14;;;;;;;6.68;3.78;;;7.50;99.90;;;;;;4976942;28;20045;-67
2022/10/09 05:59:40;;;;;;;8.85;3.47;;;7.50;99.90;;;;;;4976752;28;20042;-67
2022/10/09 06:02:05;;;;;;;7.88;3.80;;;7.50;99.90;;;;;;4976730;28;20127;-67
2022/10/09 06:04:31;;;;;;;7.05;3.38;;;7.50;99.90;;;;;;4976705;28;20042;-67
2022/10/09 06:06:57;;;;;;;7.50;3.22;;;7.50;99.90;;;;;;4976771;28;20082;-67
2022/10/09 06:09:24;;;;;;;6.80;3.53;;;7.60;99.90;;;;;;4976529;28;20462;-67
2022/10/09 06:11:51;;;;;;;8.32;3.88;;;7.60;99.90;;;;;;4993997;28;20097;-67
2022/10/09 06:14:17;;;;;;;10.55;3.80;;;7.60;99.90;;;;;;4976758;28;20125;-68
2022/10/09 06:16:44;;;;;;;9.23;4.07;;;7.60;99.90;;;;;;4976374;28;20439;-67
2022/10/09 06:19:11;;;;;;;8.32;4.50;;;7.60;99.90;;;;;;4976660;28;20057;-67
2022/10/09 06:21:37;;;;;;;7.68;3.90;;;7.60;99.90;;;;;;4994520;28;20143;-68
2022/10/09 06:24:03;;;;;;;8.48;4.15;;;7.60;99.90;;;;;;4976463;28;20540;-67
2022/10/09 06:26:30;;;;;;;9.60;4.40;;;7.60;99.90;;;;;;4993763;28;20122;-67
2022/10/09 06:29:01;;;;;;;9.68;4.20;;;7.60;99.90;;;;;;4976230;28;20045;-67
2022/10/09 06:31:29;;;;;;;8.70;4.32;;;7.70;99.90;;;;;;4994073;28;20034;-67
2022/10/09 06:33:56;;;;;;;10.20;4.35;;;7.70;99.90;;;;;;4976344;28;20070;-67
2022/10/09 06:36:25;;;;;;;8.32;4.57;;;7.70;99.90;;;;;;4993756;28;20122;-67
2022/10/09 06:38:51;;;;;;;8.52;4.20;;;7.70;99.90;;;;;;4976198;28;20521;-67
2022/10/09 06:41:22;;;;;;;10.75;5.28;;;7.70;99.90;;;;;;4976533;28;20047;-67
2022/10/09 06:43:52;;;;;;;10.63;4.18;;;7.80;99.90;;;;;;4994045;28;20074;-67
2022/10/09 06:46:19;;;;;;;12.25;4.47;;;7.80;99.90;;;;;;4976247;28;20042;-67
2022/10/09 06:48:44;;;;;;;7.75;4.50;;;7.80;99.90;;;;;;4975980;28;20089;-67
2022/10/09 06:51:13;;;;;;;7.68;4.30;;;7.90;99.90;;;;;;4976430;28;20077;-68
2022/10/09 06:53:50;;;;;;;7.47;4.20;;;7.90;99.90;;;;;;4976175;28;20096;-67
2022/10/09 06:56:17;;;;;;;9.43;4.85;;;7.90;99.90;;;;;;4976181;28;20042;-67
2022/10/09 06:58:42;;;;;;;12.98;4.75;;;7.90;99.90;;;;;;4976065;28;20101;-67
2022/10/09 07:01:13;;;;;;;7.80;4.70;;;8.00;99.90;;;;;;4976062;28;20046;-67
2022/10/09 07:03:41;;;;;;;9.60;4.40;;;8.00;99.90;;;;;;4976261;28;20042;-67
2022/10/09 07:06:12;;;;;;;9.68;4.30;;;8.00;99.90;;;;;;4976305;28;20100;-67
2022/10/09 07:08:40;;;;;;;9.25;5.22;;;8.10;99.90;;;;;;4979915;28;20048;-67
2022/10/09 07:11:10;;;;;;;9.95;4.60;;;8.10;99.90;;;;;;4997449;28;20518;-67
2022/10/09 07:13:36;;;;;;;12.80;4.88;;;8.20;99.90;;;;;;4963791;28;20521;-67
2022/10/09 07:16:02;;;;;;;15.15;5.32;;;8.20;99.90;;;;;;4979700;28;20384;-67
2022/10/09 07:18:28;;;;;;;11.18;5.20;;;8.20;99.90;;;;;;4979545;28;20185;-67
2022/10/09 07:20:53;;;;;;;11.98;5.20;;;8.20;99.90;;;;;;4979614;28;20129;-67
2022/10/09 07:23:19;;;;;;;13.30;5.55;;;8.30;99.90;;;;;;4979623;28;20046;-68
2022/10/09 07:25:44;;;;;;;9.75;5.25;;;8.30;99.90;;;;;;4979588;28;20125;-68
2022/10/09 07:28:10;;;;;;;8.88;5.30;;;8.30;99.90;;;;;;4979569;28;20126;-67
2022/10/09 07:30:39;;;;;;;11.18;5.68;;;8.40;99.90;;;;;;4997428;28;20533;-67
2022/10/09 07:33:04;;;;;;;10.48;5.32;;;8.40;99.90;;;;;;4963284;28;20042;-67
2022/10/09 07:35:30;;;;;;;9.77;5.55;;;8.50;99.90;;;;;;4979615;28;20085;-67
2022/10/09 07:37:55;;;;;;;10.82;6.05;;;8.50;99.90;;;;;;4979501;28;20050;-67
2022/10/09 07:40:21;;;;;;;12.27;5.78;;;8.50;99.90;;;;;;4979252;28;20109;-67
2022/10/09 07:42:46;;;;;;;11.85;6.57;;;8.60;99.90;;;;;;4996669;28;20050;-71
2022/10/09 07:45:12;;;;;;;9.98;6.07;;;8.60;99.90;;;;;;4979217;28;20089;-71
2022/10/09 07:47:37;;;;;;;10.90;5.60;;;8.70;99.90;;;;;;4979024;28;20093;-71
2022/10/09 07:50:03;;;;;;;12.02;6.10;;;8.70;99.90;;;;;;4979333;28;20050;-71
2022/10/09 07:52:29;;;;;;;12.88;6.47;;;8.80;99.90;;;;;;4979296;28;20034;-71
2022/10/09 07:54:54;;;;;;;9.98;5.45;;;8.80;99.90;;;;;;4979017;28;20041;-71
2022/10/09 07:57:20;;;;;;;12.50;6.10;;;8.90;99.90;;;;;;4978847;28;20042;-71
2022/10/09 07:59:46;;;;;;;9.85;5.55;;;9.00;99.90;;;;;;4962906;28;20084;-71
2022/10/09 08:02:11;;;;;;;11.63;6.13;;;9.00;99.90;;;;;;4978841;28;20080;-71
2022/10/09 08:04:37;;;;;;;10.10;5.65;;;9.10;99.90;;;;;;4978826;28;20129;-71
2022/10/09 08:07:02;;;;;;;11.02;5.38;;;9.20;99.90;;;;;;4979008;28;20054;-70
2022/10/09 08:09:28;;;;;;;10.15;5.88;;;9.30;99.90;;;;;;4978683;28;20038;-71
2022/10/09 08:11:53;;;;;;;9.15;5.53;;;9.40;99.90;;;;;;4978747;28;20153;-71
2022/10/09 08:14:19;;;;;;;9.55;5.45;;;9.50;99.90;;;;;;4962637;28;20066;-71
2022/10/09 08:16:44;;;;;;;10.82;5.10;;;9.60;99.90;;;;;;4962394;28;20038;-71
2022/10/09 08:19:10;;;;;;;9.23;4.78;;;9.90;99.90;;;;;;4978342;28;20038;-71
2022/10/09 08:21:36;;;;;;;9.95;5.18;;;10.80;99.90;;;;;;4962448;28;20046;-71
2022/10/09 08:24:01;;;;;;;9.27;4.63;;;12.30;99.90;;;;;;4978458;28;20122;-71
2022/10/09 08:26:29;;;;;;;7.40;4.00;;;13.80;99.90;;;;;;4978401;28;20129;-71
2022/10/09 08:29:00;;;;;;;11.82;4.80;;;15.10;99.90;;;;;;4978323;28;20085;-71
2022/10/09 08:31:27;;;;;;;8.68;4.03;;;16.10;99.90;;;;;;4978437;28;20080;-71
2022/10/09 08:33:54;;;;;;;12.23;4.18;;;17.10;99.90;;;;;;4978547;28;20402;-71
2022/10/09 08:36:20;;;;;;;7.25;4.13;;;17.80;99.90;;;;;;4978566;28;20038;-71
2022/10/09 08:38:46;;;;;;;9.50;3.70;;;18.50;99.90;;;;;;4978141;28;20046;-71
2022/10/09 08:41:17;;;;;;;9.68;4.05;;;19.10;98.40;;;;;;4978098;28;20050;-71
2022/10/09 08:43:46;;;;;;;7.82;3.60;;;19.60;95.70;;;;;;4978370;28;20077;-71
2022/10/09 08:46:27;;;;;;;8.05;3.90;;;20.10;93.30;;;;;;4978089;28;20042;-71
2022/10/09 08:48:53;;;;;;;9.00;3.80;;;20.40;89.90;;;;;;4978137;28;20046;-71
2022/10/09 08:51:27;;;;;;;8.82;3.72;;;20.90;86.30;;;;;;4961871;28;20068;-71
2022/10/09 08:53:56;;;;;;;7.90;3.63;;;21.30;80.90;;;;;;4978197;28;20558;-72
2022/10/09 08:56:23;;;;;;;7.68;3.28;;;21.40;77.00;;;;;;4978160;28;20092;-71
2022/10/09 08:58:49;;;;;;;8.95;3.90;;;21.50;75.40;;;;;;4977787;28;20052;-71
2022/10/09 09:01:37;;;;;;;8.10;4.03;;;21.40;74.40;;;;;;4978076;28;20034;-71
2022/10/09 09:04:24;;;;;;;10.15;3.72;;;21.40;74.00;;;;;;4977798;28;20042;-71
2022/10/09 09:07:23;;;;;;;8.77;3.88;;;21.70;72.90;;;;;;4978016;28;20093;-71
2022/10/09 09:10:09;;;;;;;8.00;3.30;;;22.20;71.00;;;;;;4961498;28;20034;-72
2022/10/09 09:12:49;;;;;;;8.32;3.65;;;22.60;67.00;;;;;;4977597;28;20121;-72
2022/10/09 09:15:54;;;;;;;9.20;4.28;;;23.00;65.50;;;;;;4977724;28;20090;-72
2022/10/09 09:18:41;;;;;;;7.60;3.50;;;23.30;63.90;;;;;;4939046;28;20082;-72
2022/10/09 09:21:34;;;;;;;8.57;3.40;;;23.80;61.30;;;;;;4977464;28;20049;-72
2022/10/09 09:24:04;;;;;;;10.20;3.60;;;24.20;60.10;;;;;;4977617;28;20491;-72
2022/10/09 09:26:29;;;;;;;9.48;3.53;;;24.50;59.50;;;;;;4978316;28;20054;-72
2022/10/09 09:29:01;;;;;;;9.15;3.83;;;24.70;58.50;;;;;;4960690;28;20415;-72
2022/10/09 09:31:35;;;;;;;8.95;3.45;;;24.90;57.50;;;;;;4977243;28;20053;-72
2022/10/09 09:34:20;;;;;;;8.70;2.85;;;24.80;56.60;;;;;;4977231;28;20043;-72
2022/10/09 09:36:54;;;;;;;7.75;3.20;;;24.70;56.10;;;;;;4977273;28;20050;-72
2022/10/09 09:39:22;;;;;;;7.75;2.88;;;24.70;56.40;;;;;;4977123;28;20050;-71
2022/10/09 09:41:47;;;;;;;9.60;2.92;;;24.40;56.80;;;;;;4977015;28;20050;-72
2022/10/09 09:44:15;;;;;;;7.35;2.90;;;24.50;57.70;;;;;;4976995;28;20129;-72
2022/10/09 09:46:42;;;;;;;11.50;3.55;;;24.70;57.50;;;;;;4976844;28;20166;-71
2022/10/09 09:49:19;;;;;;;7.18;2.63;;;25.00;56.90;;;;;;4976840;28;20046;-72
2022/10/09 09:51:47;;;;;;;11.00;2.80;;;25.30;55.80;;;;;;4976913;28;20491;-71
2022/10/09 09:54:20;;;;;;;8.60;2.80;;;25.40;54.80;;;;;;4977078;28;20046;-71
2022/10/09 09:56:47;;;;;;;6.85;2.40;;;25.40;53.90;;;;;;4976734;28;20034;-71
2022/10/09 09:59:39;;;;;;;8.90;3.00;;;25.40;53.80;;;;;;4977040;28;20042;-71
2022/10/09 10:02:22;;;;;;;8.05;2.92;;;25.40;53.80;;;;;;4977115;28;20082;-71
2022/10/09 10:04:56;;;;;;;6.43;2.33;;;25.50;54.00;;;;;;4976694;28;20049;-71
2022/10/09 10:07:33;;;;;;;8.27;2.53;;;25.70;53.60;;;;;;4976706;28;20099;-71
2022/10/09 10:10:18;;;;;;;7.45;2.20;;;26.10;52.40;;;;;;4976611;28;20050;-71
2022/10/09 10:12:51;;;;;;;11.05;2.72;;;26.30;53.00;;;;;;4976723;28;20050;-72
2022/10/09 10:15:32;;;;;;;7.15;1.77;;;26.50;51.60;;;;;;4976962;28;20042;-71
2022/10/09 10:18:14;;;;;;;9.70;2.42;;;26.60;51.90;;;;;;4976420;28;20046;-71
2022/10/09 10:20:47;;;;;;;8.93;2.37;;;26.80;51.60;;;;;;4976838;28;20042;-71
2022/10/09 10:23:34;;;;;;;11.02;2.50;;;26.80;50.70;;;;;;4977534;28;20076;-71
2022/10/09 10:26:06;;;;;;;6.95;2.00;;;26.80;51.10;;;;;;4976424;28;20053;-71
2022/10/09 10:28:43;;;;;;;9.73;2.22;;;27.00;50.40;;;;;;4976329;28;20046;-71
2022/10/09 10:31:18;;;;;;;10.30;2.25;;;27.20;50.30;;;;;;4976486;28;20093;-71
2022/10/09 10:33:49;;;;;;;7.55;1.85;;;27.20;49.10;;;;;;4976636;28;20046;-72
2022/10/09 10:36:15;;;;;;;7.32;1.75;;;27.30;49.30;;;;;;4976597;28;20105;-72
2022/10/09 10:38:54;;;;;;;13.00;1.70;;;27.30;48.80;;;;;;4976489;28;20479;-72
2022/10/09 10:41:38;;;;;;;10.88;2.28;;;27.30;48.60;;;;;;4978572;28;20176;-72
2022/10/09 10:44:36;;;;;;;10.27;2.08;;;27.10;48.40;;;;;;4980353;28;20509;-72
2022/10/09 10:47:09;;;;;;;8.90;2.50;;;27.00;48.40;;;;;;4980250;28;20058;-72
2022/10/09 10:49:35;;;;;;;5.50;1.63;;;26.60;49.30;;;;;;4980186;28;20038;-72
2022/10/09 10:52:39;;;;;;;7.20;1.98;;;26.40;49.80;;;;;;4980165;28;20041;-72
2022/10/09 10:55:16;;;;;;;6.07;2.20;;;26.20;49.60;;;;;;4980358;28;20043;-72
2022/10/09 10:58:02;;;;;;;8.35;2.28;;;25.80;49.70;;;;;;4980865;28;20049;-71
2022/10/09 11:00:32;;;;;;;8.75;2.83;;;25.10;50.10;;;;;;4980309;28;20046;-72
2022/10/09 11:03:33;;;;;;;9.27;2.63;;;24.80;52.00;;;;;;4979923;28;20042;-72
2022/10/09 11:06:30;;;;;;;8.15;2.47;;;24.70;52.40;;;;;;4979931;28;20038;-72
2022/10/09 11:09:23;;;;;;;11.45;2.67;;;24.60;51.40;;;;;;4979337;28;20408;-71
2022/10/09 11:11:56;;;;;;;8.60;2.28;;;24.70;52.30;;;;;;4979937;28;20088;-71
2022/10/09 11:14:50;;;;;;;9.48;2.40;;;24.80;52.00;;;;;;4964544;28;20101;-71
2022/10/09 11:17:36;;;;;;;11.23;2.55;;;24.70;51.90;;;;;;4979819;28;20488;-71
2022/10/09 11:20:41;;;;;;;7.25;2.20;;;24.30;51.40;;;;;;4979626;28;20073;-71
2022/10/09 11:23:37;;;;;;;7.95;2.00;;;24.10;50.50;;;;;;4979515;28;20141;-71
2022/10/09 11:26:47;;;;;;;7.05;2.10;;;24.00;52.90;;;;;;4979654;28;20120;-71
2022/10/09 11:29:23;;;;;;;10.77;2.47;;;24.00;52.90;;;;;;4902481;29;20052;-71
2022/10/09 11:32:18;;;;;;;10.05;2.47;;;24.00;53.00;;;;;;4902166;29;20119;-71
2022/10/09 11:34:58;;;;;;;9.70;2.72;;;24.00;53.20;;;;;;4961922;28;20112;-71
2022/10/09 11:37:29;;;;;;;8.93;2.10;;;24.10;52.70;;;;;;4979740;28;20035;-72
2022/10/09 11:39:55;;;;;;;8.45;2.15;;;24.00;52.60;;;;;;4979589;28;20053;-72
2022/10/09 11:42:23;;;;;;;7.78;2.13;;;24.10;52.40;;;;;;4979362;28;20046;-72
2022/10/09 11:45:28;;;;;;;7.03;2.30;;;24.20;51.80;;;;;;4979670;28;20046;-72
2022/10/09 11:48:07;;;;;;;5.18;2.08;;;24.30;51.00;;;;;;4979532;28;20078;-72
2022/10/09 11:50:46;;;;;;;7.60;2.60;;;24.30;51.90;;;;;;4979265;28;20042;-72
2022/10/09 11:53:17;;;;;;;9.98;2.60;;;24.20;52.10;;;;;;4978671;28;20065;-72
2022/10/09 11:55:42;;;;;;;5.22;2.10;;;24.30;51.20;;;;;;4979301;28;20062;-72
2022/10/09 11:58:24;;;;;;;7.03;2.17;;;24.40;50.90;;;;;;4979010;28;20046;-72
2022/10/09 12:01:08;;;;;;;7.18;2.33;;;24.40;49.40;;;;;;4979306;28;20446;-71
2022/10/09 12:03:36;;;;;;;10.02;2.70;;;24.30;50.30;;;;;;4978944;28;20050;-71
2022/10/09 12:06:21;;;;;;;6.28;2.45;;;24.30;51.00;;;;;;4979099;28;20192;-72
2022/10/09 12:08:59;;;;;;;7.95;2.35;;;24.30;50.70;;;;;;4978643;28;20058;-72
2022/10/09 12:11:26;;;;;;;9.48;2.42;;;24.40;51.00;;;;;;4978649;28;20040;-72
2022/10/09 12:13:57;;;;;;;9.70;2.83;;;24.30;51.50;;;;;;4978988;28;20096;-72
2022/10/09 12:16:42;;;;;;;8.10;2.60;;;24.40;51.10;;;;;;4978650;28;20483;-71
2022/10/09 12:19:22;;;;;;;6.03;2.40;;;24.40;49.70;;;;;;4978920;28;20042;-71
2022/10/09 12:22:06;;;;;;;9.77;3.03;;;24.50;49.20;;;;;;4978834;28;20153;-69
2022/10/09 12:24:41;;;;;;;7.85;2.90;;;24.40;50.00;;;;;;4978591;28;20525;-68
2022/10/09 12:27:16;;;;;;;8.18;3.03;;;24.40;49.90;;;;;;4962355;28;20073;-69
2022/10/09 12:29:50;;;;;;;9.45;3.20;;;24.40;51.50;;;;;;4978423;28;20053;-69
2022/10/09 12:32:25;;;;;;;9.88;3.63;;;24.40;50.30;;;;;;4978574;28;20081;-69
2022/10/09 12:34:51;;;;;;;8.93;3.00;;;24.30;49.50;;;;;;4978404;28;20042;-69
2022/10/09 12:37:20;;;;;;;9.95;3.35;;;24.30;51.00;;;;;;4978194;28;20041;-69
2022/10/09 12:39:47;;;;;;;9.65;3.28;;;24.20;50.20;;;;;;4978227;28;20126;-69
2022/10/09 12:42:25;;;;;;;8.82;3.08;;;24.10;51.10;;;;;;4978121;28;20039;-69
2022/10/09 12:44:54;;;;;;;9.38;3.05;;;24.10;50.70;;;;;;4978481;28;20047;-70
2022/10/09 12:47:25;;;;;;;8.85;3.30;;;24.10;50.70;;;;;;4977996;28;20073;-69
2022/10/09 12:50:17;;;;;;;8.25;3.10;;;24.00;50.40;;;;;;4978022;28;20415;-69
2022/10/09 12:52:48;;;;;;;9.75;3.30;;;23.80;49.10;;;;;;4974261;28;20137;-69
2022/10/09 12:55:28;;;;;;;12.70;3.70;;;23.60;51.00;;;;;;4977927;28;20121;-69
2022/10/09 12:57:59;;;;;;;9.77;3.30;;;23.60;50.50;;;;;;4977822;28;20503;-69
2022/10/09 13:00:25;;;;;;;12.43;3.13;;;23.50;51.10;;;;;;4977874;28;20125;-69
2022/10/09 13:02:50;;;;;;;8.30;3.17;;;23.50;51.20;;;;;;4978060;28;20126;-69
2022/10/09 13:05:16;;;;;;;8.85;3.00;;;23.60;51.20;;;;;;4977048;28;20384;-69
2022/10/09 13:07:42;;;;;;;6.13;2.83;;;23.60;52.10;;;;;;4977541;28;20081;-69
2022/10/09 13:10:18;;;;;;;8.00;3.20;;;23.60;51.20;;;;;;4977948;28;20045;-69